createdAt,value
2022-08-31T00:02:16.780Z,11.80
2022-08-31T00:05:21.890Z,12.48
2022-08-31T00:08:25.864Z,11.43
2022-08-31T00:11:31.015Z,11.93
2022-08-31T00:14:34.882Z,12.38
2022-08-31T00:17:38.256Z,12.57
2022-08-31T00:20:43.658Z,12.30
2022-08-31T00:23:46.964Z,11.77
2022-08-31T00:26:50.327Z,12.02
2022-08-31T00:29:54.118Z,12.32
2022-08-31T00:32:59.796Z,12.35
2022-08-31T00:36:05.566Z,12.48
2022-08-31T00:39:09.131Z,12.95
2022-08-31T00:42:12.571Z,12.75
2022-08-31T00:45:16.213Z,12.82
2022-08-31T00:48:19.610Z,13.77
2022-08-31T00:51:25.165Z,13.35
2022-08-31T00:54:34.018Z,14.07
2022-08-31T00:57:40.128Z,14.18
2022-08-31T01:00:45.237Z,13.57
2022-08-31T01:03:49.133Z,13.77
2022-08-31T01:06:54.748Z,13.02
2022-08-31T01:09:59.779Z,13.38
2022-08-31T01:13:03.788Z,13.02
2022-08-31T01:16:11.858Z,13.40
2022-08-31T01:19:29.688Z,13.50
2022-08-31T01:22:43.285Z,14.00
2022-08-31T01:25:50.268Z,13.57
2022-08-31T01:29:00.235Z,13.80
2022-08-31T01:32:05.357Z,13.43
2022-08-31T01:35:11.343Z,12.95
2022-08-31T01:38:15.282Z,13.32
2022-08-31T01:41:20.080Z,13.20
2022-08-31T01:44:25.849Z,14.43
2022-08-31T01:47:29.193Z,13.75
2022-08-31T01:50:32.574Z,13.88
2022-08-31T01:53:36.510Z,14.00
2022-08-31T01:56:45.828Z,13.57
2022-08-31T01:59:53.773Z,13.15
2022-08-31T02:03:17.328Z,13.60
2022-08-31T02:06:20.855Z,12.43
2022-08-31T02:09:25.218Z,13.30
2022-08-31T02:12:30.017Z,13.73
2022-08-31T02:15:33.860Z,13.30
2022-08-31T02:18:37.815Z,13.38
2022-08-31T02:21:41.878Z,13.52
2022-08-31T02:24:45.286Z,13.60
2022-08-31T02:27:50.034Z,13.80
2022-08-31T02:30:54.584Z,12.65
2022-08-31T02:33:58.073Z,13.48
2022-08-31T02:37:01.420Z,12.65
2022-08-31T02:40:06.897Z,13.15
2022-08-31T02:43:21.142Z,13.63
2022-08-31T02:46:30.451Z,13.30
2022-08-31T02:49:54.147Z,12.93
2022-08-31T02:52:57.562Z,12.48
2022-08-31T02:56:01.111Z,13.18
2022-08-31T02:59:06.045Z,13.68
2022-08-31T03:02:10.041Z,13.75
2022-08-31T03:05:16.235Z,13.60
2022-08-31T03:08:25.944Z,12.20
2022-08-31T03:11:30.329Z,12.05
2022-08-31T03:14:35.119Z,12.18
2022-08-31T03:17:38.771Z,12.73
2022-08-31T03:20:43.231Z,12.50
2022-08-31T03:23:47.242Z,11.82
2022-08-31T03:26:51.042Z,13.18
2022-08-31T03:29:55.846Z,12.40
2022-08-31T03:33:02.404Z,12.30
2022-08-31T03:36:08.347Z,13.45
2022-08-31T03:39:11.760Z,12.30
2022-08-31T03:42:15.166Z,11.32
2022-08-31T03:45:20.314Z,12.32
2022-08-31T03:48:24.235Z,12.82
2022-08-31T03:51:27.673Z,12.27
2022-08-31T03:54:31.016Z,12.88
2022-08-31T03:57:35.101Z,13.40
2022-08-31T04:00:40.556Z,12.77
2022-08-31T04:03:56.194Z,14.43
2022-08-31T04:07:18.720Z,14.05
2022-08-31T04:10:42.902Z,14.15
2022-08-31T04:14:01.438Z,14.52
2022-08-31T04:17:15.480Z,14.25
2022-08-31T04:20:24.525Z,14.50
2022-08-31T04:23:33.380Z,14.15
2022-08-31T04:26:40.625Z,14.55
2022-08-31T04:29:44.223Z,13.60
2022-08-31T04:32:49.018Z,21.90
2022-08-31T04:35:52.470Z,16.85
2022-08-31T04:38:58.164Z,18.40
2022-08-31T04:42:01.925Z,24.77
2022-08-31T04:45:09.192Z,15.23
2022-08-31T04:48:14.086Z,15.65
2022-08-31T04:51:20.352Z,16.65
2022-08-31T04:54:23.697Z,13.98
2022-08-31T04:57:27.264Z,15.38
2022-08-31T05:00:30.612Z,15.80
2022-08-31T05:03:57.260Z,13.85
2022-08-31T05:07:00.865Z,13.80
2022-08-31T05:10:05.727Z,13.43
2022-08-31T05:13:09.104Z,12.90
2022-08-31T05:16:16.236Z,12.50
2022-08-31T05:19:21.600Z,12.95
2022-08-31T05:22:25.235Z,12.80
2022-08-31T05:25:30.454Z,12.15
2022-08-31T05:28:34.666Z,11.77
2022-08-31T05:31:39.543Z,10.45
2022-08-31T05:34:44.294Z,11.98
2022-08-31T05:37:48.381Z,10.63
2022-08-31T05:40:54.347Z,10.98
2022-08-31T05:43:59.336Z,11.07
2022-08-31T05:47:03.766Z,10.77
2022-08-31T05:50:10.638Z,10.55
2022-08-31T05:53:17.792Z,10.27
2022-08-31T05:56:25.609Z,9.88
2022-08-31T05:59:32.627Z,9.77
2022-08-31T06:02:40.226Z,9.25
2022-08-31T06:05:47.202Z,9.30
2022-08-31T06:08:52.049Z,8.43
2022-08-31T06:11:55.616Z,9.30
2022-08-31T06:14:58.950Z,9.48
2022-08-31T06:18:02.372Z,9.25
2022-08-31T06:21:10.516Z,9.70
2022-08-31T06:24:14.904Z,9.45
2022-08-31T06:27:18.961Z,9.52
2022-08-31T06:30:27.415Z,9.57
2022-08-31T06:33:32.579Z,8.93
2022-08-31T06:36:49.427Z,9.95
2022-08-31T06:40:09.128Z,9.50
2022-08-31T06:43:32.729Z,9.18
2022-08-31T06:46:47.483Z,8.43
2022-08-31T06:50:00.943Z,12.10
2022-08-31T06:53:06.418Z,8.10
2022-08-31T06:56:28.766Z,8.70
2022-08-31T07:00:11.583Z,8.70
2022-08-31T07:03:33.350Z,8.27
2022-08-31T07:06:40.997Z,9.63
2022-08-31T07:09:45.799Z,8.88
2022-08-31T07:12:49.204Z,9.32
2022-08-31T07:15:52.584Z,8.65
2022-08-31T07:18:59.058Z,9.27
2022-08-31T07:22:03.298Z,9.30
2022-08-31T07:25:11.071Z,9.88
2022-08-31T07:28:14.936Z,8.80
2022-08-31T07:31:18.478Z,8.68
2022-08-31T07:34:25.922Z,7.68
2022-08-31T07:38:05.365Z,7.63
2022-08-31T07:41:29.860Z,7.97
2022-08-31T07:44:34.624Z,8.27
2022-08-31T07:47:46.239Z,7.88
2022-08-31T07:50:54.412Z,7.60
2022-08-31T07:54:21.548Z,8.48
2022-08-31T07:57:44.341Z,8.13
2022-08-31T08:00:49.605Z,8.15
2022-08-31T08:03:53.579Z,8.50
2022-08-31T08:07:21.518Z,8.60
2022-08-31T08:10:54.263Z,8.20
2022-08-31T08:14:12.293Z,8.75
2022-08-31T08:17:35.628Z,8.45
2022-08-31T08:20:46.712Z,8.27
2022-08-31T08:23:50.445Z,8.48
2022-08-31T08:27:19.753Z,7.90
2022-08-31T08:30:29.890Z,8.60
2022-08-31T08:33:35.552Z,8.70
2022-08-31T08:36:41.000Z,7.93
2022-08-31T08:39:45.672Z,7.97
2022-08-31T08:42:54.830Z,8.80
2022-08-31T08:46:10.671Z,8.52
2022-08-31T08:49:36.038Z,7.65
2022-08-31T08:52:42.665Z,9.32
2022-08-31T08:55:46.352Z,8.30
2022-08-31T08:58:49.763Z,8.50
2022-08-31T09:02:07.110Z,8.13
2022-08-31T09:06:02.072Z,7.82
2022-08-31T09:09:30.608Z,8.93
2022-08-31T09:12:44.842Z,8.65
2022-08-31T09:16:04.644Z,7.57
2022-08-31T09:19:14.675Z,8.20
2022-08-31T09:22:19.245Z,8.45
2022-08-31T09:25:28.545Z,8.07
2022-08-31T09:29:04.081Z,8.23
2022-08-31T09:32:10.044Z,8.48
2022-08-31T09:35:26.126Z,8.13
2022-08-31T09:38:37.178Z,8.77
2022-08-31T09:41:40.500Z,7.80
2022-08-31T09:44:47.487Z,7.65
2022-08-31T09:47:56.096Z,7.05
2022-08-31T09:51:04.878Z,8.20
2022-08-31T09:54:35.694Z,6.70
2022-08-31T09:57:54.484Z,8.13
2022-08-31T10:00:58.232Z,7.10
2022-08-31T10:04:18.817Z,7.75
2022-08-31T10:07:37.775Z,7.75
2022-08-31T10:10:52.148Z,8.65
2022-08-31T10:14:04.725Z,8.00
2022-08-31T10:17:15.345Z,7.75
2022-08-31T10:20:22.510Z,7.45
2022-08-31T10:23:36.169Z,7.65
2022-08-31T10:26:47.085Z,7.03
2022-08-31T10:29:57.106Z,7.57
2022-08-31T10:33:07.252Z,8.20
2022-08-31T10:36:11.818Z,7.28
2022-08-31T10:39:28.238Z,7.20
2022-08-31T10:42:36.250Z,7.57
2022-08-31T10:45:44.664Z,7.93
2022-08-31T10:48:54.754Z,7.47
2022-08-31T10:52:03.451Z,7.88
2022-08-31T10:55:15.452Z,7.38
2022-08-31T10:58:27.891Z,7.97
2022-08-31T11:01:42.771Z,7.97
2022-08-31T11:04:58.627Z,7.43
2022-08-31T11:08:18.446Z,8.68
2022-08-31T11:11:42.357Z,8.10
2022-08-31T11:15:34.521Z,8.40
2022-08-31T11:18:55.090Z,8.05
2022-08-31T11:22:19.976Z,7.50
2022-08-31T11:26:10.572Z,7.35
2022-08-31T11:29:28.959Z,6.68
2022-08-31T11:32:39.733Z,7.68
2022-08-31T11:36:07.635Z,6.70
2022-08-31T11:39:26.912Z,6.05
2022-08-31T11:43:01.248Z,6.07
2022-08-31T11:46:38.159Z,6.25
2022-08-31T11:49:48.021Z,6.05
2022-08-31T11:52:53.821Z,5.78
2022-08-31T11:55:59.737Z,5.28
2022-08-31T11:59:25.286Z,5.70
2022-08-31T12:02:45.979Z,5.88
2022-08-31T12:05:56.383Z,6.03
2022-08-31T12:09:16.214Z,6.65
2022-08-31T12:12:34.638Z,5.45
2022-08-31T12:16:04.312Z,5.85
2022-08-31T12:19:40.397Z,5.32
2022-08-31T12:23:34.985Z,5.65
2022-08-31T12:26:52.482Z,6.70
2022-08-31T12:30:14.272Z,6.10
2022-08-31T12:33:20.999Z,5.40
2022-08-31T12:36:29.530Z,6.43
2022-08-31T12:39:34.576Z,6.50
2022-08-31T12:42:56.340Z,6.00
2022-08-31T12:46:20.520Z,6.78
2022-08-31T12:49:49.935Z,6.10
2022-08-31T12:53:08.197Z,5.97
2022-08-31T12:56:21.772Z,6.53
2022-08-31T12:59:57.323Z,5.28
2022-08-31T13:03:02.695Z,5.60
2022-08-31T13:06:08.478Z,5.47
2022-08-31T13:09:25.419Z,6.18
2022-08-31T13:12:30.242Z,6.03
2022-08-31T13:15:39.936Z,5.47
2022-08-31T13:18:43.545Z,9.00
2022-08-31T13:21:51.648Z,8.05
2022-08-31T13:24:55.476Z,7.30
2022-08-31T13:28:01.152Z,7.95
2022-08-31T13:31:09.255Z,6.85
2022-08-31T13:34:12.736Z,7.90
2022-08-31T13:37:22.890Z,7.30
2022-08-31T13:40:28.729Z,6.05
2022-08-31T13:43:37.299Z,6.03
2022-08-31T13:46:44.840Z,5.95
2022-08-31T13:49:49.181Z,6.20
2022-08-31T13:53:22.488Z,6.15
2022-08-31T13:56:38.138Z,5.85
2022-08-31T13:59:42.872Z,7.07
2022-08-31T14:02:46.350Z,7.15
2022-08-31T14:05:58.230Z,7.10
2022-08-31T14:09:05.369Z,6.53
2022-08-31T14:12:09.414Z,7.25
2022-08-31T14:15:36.267Z,7.53
2022-08-31T14:18:45.169Z,7.43
2022-08-31T14:21:50.235Z,8.05
2022-08-31T14:24:55.600Z,7.63
2022-08-31T14:27:58.971Z,7.55
2022-08-31T14:31:12.452Z,7.72
2022-08-31T14:34:23.412Z,7.90
2022-08-31T14:37:30.188Z,7.68
2022-08-31T14:40:33.737Z,7.50
2022-08-31T14:43:39.079Z,7.20
2022-08-31T14:46:44.093Z,7.20
2022-08-31T14:49:47.406Z,8.00
2022-08-31T14:52:55.662Z,8.07
2022-08-31T14:55:59.172Z,8.35
2022-08-31T14:59:06.120Z,7.70
2022-08-31T15:02:13.415Z,9.40
2022-08-31T15:05:18.232Z,7.15
2022-08-31T15:08:23.206Z,6.95
2022-08-31T15:11:37.105Z,8.00
2022-08-31T15:14:40.836Z,7.00
2022-08-31T15:17:46.996Z,6.78
2022-08-31T15:20:50.366Z,7.45
2022-08-31T15:23:54.373Z,6.15
2022-08-31T15:27:00.079Z,6.40
2022-08-31T15:30:08.258Z,6.95
2022-08-31T15:33:13.001Z,7.35
2022-08-31T15:36:18.664Z,7.38
2022-08-31T15:39:22.187Z,7.43
2022-08-31T15:42:25.967Z,7.57
2022-08-31T15:45:30.924Z,7.55
2022-08-31T15:48:45.897Z,7.95
2022-08-31T15:51:50.375Z,8.13
2022-08-31T15:54:54.430Z,7.43
2022-08-31T15:58:00.060Z,8.07
2022-08-31T16:01:05.443Z,8.60
2022-08-31T16:04:19.218Z,8.38
2022-08-31T16:07:23.965Z,8.30
2022-08-31T16:10:28.333Z,7.88
2022-08-31T16:13:31.613Z,8.00
2022-08-31T16:16:37.788Z,8.45
2022-08-31T16:19:43.063Z,8.18
2022-08-31T16:22:46.439Z,7.97
2022-08-31T16:25:49.987Z,7.82
2022-08-31T16:33:20.861Z,8.27
2022-08-31T16:36:27.930Z,7.60
2022-08-31T16:39:31.222Z,8.07
2022-08-31T16:42:35.283Z,8.50
2022-08-31T16:45:39.775Z,8.23
2022-08-31T16:49:23.058Z,8.77
2022-08-31T16:52:51.664Z,9.10
2022-08-31T16:56:41.754Z,8.82
2022-08-31T16:59:54.519Z,9.60
2022-08-31T17:02:57.860Z,9.60
2022-08-31T17:06:01.203Z,10.48
2022-08-31T17:09:08.296Z,9.23
2022-08-31T17:12:14.237Z,8.77
2022-08-31T17:15:19.212Z,9.65
2022-08-31T17:18:27.950Z,9.18
2022-08-31T17:21:32.851Z,9.90
2022-08-31T17:24:43.191Z,10.00
2022-08-31T17:27:46.557Z,10.43
2022-08-31T17:30:54.668Z,10.27
2022-08-31T17:33:58.951Z,11.27
2022-08-31T17:37:05.072Z,11.90
2022-08-31T17:40:14.086Z,11.13
2022-08-31T17:43:20.135Z,11.63
2022-08-31T17:46:23.528Z,10.25
2022-08-31T17:49:28.857Z,10.63
2022-08-31T17:52:32.979Z,10.73
2022-08-31T17:55:37.772Z,9.75
2022-08-31T17:58:41.102Z,10.50
2022-08-31T18:01:45.369Z,10.20
2022-08-31T18:04:49.107Z,9.70
2022-08-31T18:07:52.631Z,10.30
2022-08-31T18:10:57.346Z,10.00
2022-08-31T18:14:00.770Z,9.88
2022-08-31T18:17:06.278Z,9.38
2022-08-31T18:20:12.592Z,9.45
2022-08-31T18:23:16.599Z,8.73
2022-08-31T18:26:24.139Z,9.13
2022-08-31T18:29:33.198Z,8.55
2022-08-31T18:32:42.545Z,7.95
2022-08-31T18:35:55.484Z,7.47
2022-08-31T18:39:00.597Z,7.90
2022-08-31T18:42:23.009Z,6.88
2022-08-31T18:45:26.778Z,6.75
2022-08-31T18:48:30.447Z,7.38
2022-08-31T18:51:36.402Z,7.60
2022-08-31T18:54:39.718Z,7.22
2022-08-31T18:57:48.720Z,7.78
2022-08-31T19:00:57.445Z,7.75
2022-08-31T19:04:02.814Z,8.40
2022-08-31T19:07:07.393Z,8.38
2022-08-31T19:10:13.103Z,8.00
2022-08-31T19:13:18.166Z,8.05
2022-08-31T19:16:23.601Z,7.82
2022-08-31T19:19:27.335Z,7.50
2022-08-31T19:22:30.679Z,7.43
2022-08-31T19:25:34.083Z,6.85
2022-08-31T19:28:38.797Z,6.80
2022-08-31T19:31:46.659Z,7.50
2022-08-31T19:34:50.044Z,6.55
2022-08-31T19:37:53.785Z,6.43
2022-08-31T19:40:59.460Z,6.93
2022-08-31T19:44:08.617Z,7.30
2022-08-31T19:47:24.356Z,7.93
2022-08-31T19:50:28.080Z,5.88
2022-08-31T19:53:31.416Z,6.10
2022-08-31T19:56:34.670Z,6.80
2022-08-31T19:59:39.447Z,5.82
2022-08-31T20:02:43.025Z,5.68
2022-08-31T20:05:46.446Z,5.55
2022-08-31T20:08:51.390Z,5.55
2022-08-31T20:11:58.276Z,5.57
2022-08-31T20:15:03.447Z,6.15
2022-08-31T20:18:09.460Z,5.40
2022-08-31T20:21:17.350Z,5.55
2022-08-31T20:24:22.964Z,6.10
2022-08-31T20:27:26.218Z,6.45
2022-08-31T20:30:36.385Z,6.35
2022-08-31T20:33:43.186Z,6.43
2022-08-31T20:36:48.369Z,5.90
2022-08-31T20:39:52.457Z,5.82
2022-08-31T20:42:56.262Z,5.63
2022-08-31T20:46:05.204Z,6.10
2022-08-31T20:49:27.023Z,6.80
2022-08-31T20:52:32.448Z,6.63
2022-08-31T20:55:37.230Z,7.45
2022-08-31T20:58:43.300Z,6.35
2022-08-31T21:01:51.178Z,6.88
2022-08-31T21:04:54.526Z,7.05
2022-08-31T21:07:58.484Z,6.47
2022-08-31T21:11:01.802Z,6.70
2022-08-31T21:14:06.745Z,7.18
2022-08-31T21:17:12.110Z,8.18
2022-08-31T21:20:16.820Z,9.05
2022-08-31T21:23:20.179Z,9.57
2022-08-31T21:26:26.115Z,10.32
2022-08-31T21:29:30.097Z,10.23
2022-08-31T21:32:35.033Z,10.15
2022-08-31T21:35:38.380Z,10.32
2022-08-31T21:38:42.432Z,9.70
2022-08-31T21:41:47.160Z,10.32
2022-08-31T21:44:50.702Z,11.07
2022-08-31T21:47:55.423Z,12.00
2022-08-31T21:50:59.510Z,10.60
2022-08-31T21:54:05.686Z,12.07
2022-08-31T21:57:09.106Z,12.13
2022-08-31T22:00:21.925Z,12.18
2022-08-31T22:03:27.605Z,13.25
2022-08-31T22:06:32.670Z,12.85
2022-08-31T22:09:37.982Z,11.23
2022-08-31T22:12:41.361Z,10.75
2022-08-31T22:15:47.152Z,11.73
2022-08-31T22:19:03.820Z,13.25
2022-08-31T22:22:11.784Z,12.95
2022-08-31T22:25:15.678Z,14.57
2022-08-31T22:28:22.010Z,13.82
2022-08-31T22:31:27.445Z,13.32
2022-08-31T22:34:32.502Z,13.80
2022-08-31T22:37:38.370Z,13.60
2022-08-31T22:40:42.224Z,13.75
2022-08-31T22:43:46.626Z,12.93
2022-08-31T22:46:50.240Z,13.32
2022-08-31T22:49:55.147Z,13.32
2022-08-31T22:52:59.407Z,12.77
2022-08-31T22:56:03.065Z,13.50
2022-08-31T22:59:08.399Z,13.45
2022-08-31T23:02:11.709Z,12.77
2022-08-31T23:05:18.563Z,12.55
2022-08-31T23:08:22.583Z,12.13
2022-08-31T23:11:26.384Z,11.88
2022-08-31T23:14:31.303Z,12.30
2022-08-31T23:17:34.925Z,10.68
2022-08-31T23:20:41.919Z,11.35
2022-08-31T23:23:45.908Z,12.50
2022-08-31T23:26:53.162Z,12.40
2022-08-31T23:29:58.140Z,12.20
2022-08-31T23:33:02.383Z,12.07
2022-08-31T23:36:08.293Z,12.40
2022-08-31T23:39:11.625Z,12.57
2022-08-31T23:42:16.919Z,13.02
2022-08-31T23:45:20.249Z,12.30
2022-08-31T23:48:25.605Z,12.25
2022-08-31T23:51:30.826Z,11.57
2022-08-31T23:54:37.116Z,12.02
2022-08-31T23:57:41.921Z,11.82
